sensor_id;sensor_type;location;lat;lon;timestamp;P1;durP1;ratioP1;P2;durP2;ratioP2
70228;SDS011;57617;51.988;5.854;2023-03-23T00:00:42;8.00;;;4.40;;
70228;SDS011;57617;51.988;5.854;2023-03-23T00:03:08;9.48;;;4.35;;
70228;SDS011;57617;51.988;5.854;2023-03-23T00:05:33;11.23;;;4.60;;
70228;SDS011;57617;51.988;5.854;2023-03-23T00:08:01;13.07;;;4.43;;
70228;SDS011;57617;51.988;5.854;2023-03-23T00:10:28;9.52;;;4.95;;
70228;SDS011;57617;51.988;5.854;2023-03-23T00:12:57;8.80;;;4.50;;
70228;SDS011;57617;51.988;5.854;2023-03-23T00:15:27;9.63;;;4.20;;
70228;SDS011;57617;51.988;5.854;2023-03-23T00:17:55;8.32;;;4.32;;
70228;SDS011;57617;51.988;5.854;2023-03-23T00:20:27;8.88;;;4.57;;
70228;SDS011;57617;51.988;5.854;2023-03-23T00:22:54;9.48;;;4.10;;
70228;SDS011;57617;51.988;5.854;2023-03-23T00:25:24;10.80;;;4.45;;
70228;SDS011;57617;51.988;5.854;2023-03-23T00:27:50;9.07;;;3.92;;
70228;SDS011;57617;51.988;5.854;2023-03-23T00:30:15;8.98;;;4.18;;
70228;SDS011;57617;51.988;5.854;2023-03-23T00:32:41;12.38;;;4.07;;
70228;SDS011;57617;51.988;5.854;2023-03-23T00:35:06;7.78;;;4.15;;
70228;SDS011;57617;51.988;5.854;2023-03-23T00:37:32;7.97;;;4.03;;
70228;SDS011;57617;51.988;5.854;2023-03-23T00:39:57;8.75;;;4.15;;
70228;SDS011;57617;51.988;5.854;2023-03-23T00:42:25;7.78;;;3.88;;
70228;SDS011;57617;51.988;5.854;2023-03-23T00:44:51;9.23;;;4.15;;
70228;SDS011;57617;51.988;5.854;2023-03-23T00:47:24;7.07;;;4.03;;
70228;SDS011;57617;51.988;5.854;2023-03-23T00:49:49;8.00;;;4.10;;
70228;SDS011;57617;51.988;5.854;2023-03-23T00:52:17;7.05;;;4.35;;
70228;SDS011;57617;51.988;5.854;2023-03-23T00:54:42;12.82;;;4.47;;
70228;SDS011;57617;51.988;5.854;2023-03-23T00:57:07;9.80;;;4.30;;
70228;SDS011;57617;51.988;5.854;2023-03-23T00:59:34;10.52;;;4.15;;
70228;SDS011;57617;51.988;5.854;2023-03-23T01:02:00;8.48;;;4.00;;
70228;SDS011;57617;51.988;5.854;2023-03-23T01:04:26;8.43;;;3.95;;
70228;SDS011;57617;51.988;5.854;2023-03-23T01:06:53;8.75;;;4.10;;
70228;SDS011;57617;51.988;5.854;2023-03-23T01:09:19;10.57;;;4.05;;
70228;SDS011;57617;51.988;5.854;2023-03-23T01:11:46;8.65;;;3.80;;
70228;SDS011;57617;51.988;5.854;2023-03-23T01:14:14;8.38;;;3.95;;
70228;SDS011;57617;51.988;5.854;2023-03-23T01:16:41;10.65;;;4.35;;
70228;SDS011;57617;51.988;5.854;2023-03-23T01:19:07;6.72;;;3.95;;
70228;SDS011;57617;51.988;5.854;2023-03-23T01:21:32;9.18;;;3.92;;
70228;SDS011;57617;51.988;5.854;2023-03-23T01:23:58;9.93;;;4.22;;
70228;SDS011;57617;51.988;5.854;2023-03-23T01:26:24;11.32;;;4.53;;
70228;SDS011;57617;51.988;5.854;2023-03-23T01:28:51;11.38;;;4.10;;
70228;SDS011;57617;51.988;5.854;2023-03-23T01:31:17;7.68;;;3.90;;
70228;SDS011;57617;51.988;5.854;2023-03-23T01:33:45;8.30;;;4.30;;
70228;SDS011;57617;51.988;5.854;2023-03-23T01:36:12;7.75;;;3.90;;
70228;SDS011;57617;51.988;5.854;2023-03-23T01:38:42;7.50;;;3.72;;
70228;SDS011;57617;51.988;5.854;2023-03-23T01:41:11;8.43;;;4.10;;
70228;SDS011;57617;51.988;5.854;2023-03-23T01:46:23;9.15;;;3.75;;
70228;SDS011;57617;51.988;5.854;2023-03-23T01:48:50;7.90;;;3.85;;
70228;SDS011;57617;51.988;5.854;2023-03-23T01:51:15;6.65;;;4.15;;
70228;SDS011;57617;51.988;5.854;2023-03-23T01:54:03;7.07;;;3.72;;
70228;SDS011;57617;51.988;5.854;2023-03-23T01:56:32;6.32;;;3.55;;
70228;SDS011;57617;51.988;5.854;2023-03-23T01:59:05;9.10;;;3.80;;
70228;SDS011;57617;51.988;5.854;2023-03-23T02:01:33;7.63;;;3.83;;
70228;SDS011;57617;51.988;5.854;2023-03-23T02:04:03;6.25;;;3.90;;
70228;SDS011;57617;51.988;5.854;2023-03-23T02:06:29;8.82;;;4.00;;
70228;SDS011;57617;51.988;5.854;2023-03-23T02:08:54;6.78;;;4.20;;
70228;SDS011;57617;51.988;5.854;2023-03-23T02:11:21;7.45;;;4.00;;
70228;SDS011;57617;51.988;5.854;2023-03-23T02:13:47;7.20;;;4.13;;
70228;SDS011;57617;51.988;5.854;2023-03-23T02:16:20;10.40;;;4.30;;
70228;SDS011;57617;51.988;5.854;2023-03-23T02:19:13;9.32;;;4.50;;
70228;SDS011;57617;51.988;5.854;2023-03-23T02:27:25;8.93;;;5.07;;
70228;SDS011;57617;51.988;5.854;2023-03-23T02:30:14;7.72;;;4.57;;
70228;SDS011;57617;51.988;5.854;2023-03-23T02:35:50;8.35;;;4.85;;
70228;SDS011;57617;51.988;5.854;2023-03-23T02:38:21;9.23;;;4.53;;
70228;SDS011;57617;51.988;5.854;2023-03-23T02:40:52;7.78;;;4.75;;
70228;SDS011;57617;51.988;5.854;2023-03-23T02:43:21;9.07;;;4.75;;
70228;SDS011;57617;51.988;5.854;2023-03-23T02:45:49;9.50;;;4.68;;
70228;SDS011;57617;51.988;5.854;2023-03-23T02:48:17;10.25;;;5.05;;
70228;SDS011;57617;51.988;5.854;2023-03-23T02:50:47;8.15;;;4.65;;
70228;SDS011;57617;51.988;5.854;2023-03-23T02:53:17;10.45;;;4.57;;
70228;SDS011;57617;51.988;5.854;2023-03-23T02:55:46;7.40;;;4.70;;
70228;SDS011;57617;51.988;5.854;2023-03-23T02:58:13;9.48;;;4.72;;
70228;SDS011;57617;51.988;5.854;2023-03-23T03:00:39;8.50;;;4.78;;
70228;SDS011;57617;51.988;5.854;2023-03-23T03:03:05;9.63;;;4.28;;
70228;SDS011;57617;51.988;5.854;2023-03-23T03:08:35;9.00;;;4.60;;
70228;SDS011;57617;51.988;5.854;2023-03-23T03:11:11;10.38;;;4.97;;
70228;SDS011;57617;51.988;5.854;2023-03-23T03:13:55;11.18;;;4.88;;
70228;SDS011;57617;51.988;5.854;2023-03-23T03:16:28;7.93;;;4.75;;
70228;SDS011;57617;51.988;5.854;2023-03-23T03:19:02;10.85;;;5.00;;
70228;SDS011;57617;51.988;5.854;2023-03-23T03:21:36;8.73;;;4.57;;
70228;SDS011;57617;51.988;5.854;2023-03-23T03:24:04;7.45;;;4.68;;
70228;SDS011;57617;51.988;5.854;2023-03-23T03:26:36;8.70;;;4.65;;
70228;SDS011;57617;51.988;5.854;2023-03-23T03:29:04;9.93;;;4.85;;
70228;SDS011;57617;51.988;5.854;2023-03-23T03:31:32;9.07;;;4.55;;
70228;SDS011;57617;51.988;5.854;2023-03-23T03:34:02;7.57;;;4.60;;
70228;SDS011;57617;51.988;5.854;2023-03-23T03:36:29;7.57;;;4.43;;
70228;SDS011;57617;51.988;5.854;2023-03-23T03:39:00;9.30;;;4.82;;
70228;SDS011;57617;51.988;5.854;2023-03-23T03:41:32;8.63;;;4.72;;
70228;SDS011;57617;51.988;5.854;2023-03-23T03:43:59;8.73;;;4.65;;
70228;SDS011;57617;51.988;5.854;2023-03-23T03:46:24;10.10;;;4.78;;
70228;SDS011;57617;51.988;5.854;2023-03-23T03:48:52;8.05;;;4.72;;
70228;SDS011;57617;51.988;5.854;2023-03-23T03:51:17;11.27;;;4.80;;
70228;SDS011;57617;51.988;5.854;2023-03-23T03:53:43;11.48;;;5.18;;
70228;SDS011;57617;51.988;5.854;2023-03-23T03:56:08;12.50;;;4.80;;
70228;SDS011;57617;51.988;5.854;2023-03-23T03:58:33;9.27;;;4.85;;
70228;SDS011;57617;51.988;5.854;2023-03-23T04:01:01;6.85;;;4.60;;
70228;SDS011;57617;51.988;5.854;2023-03-23T04:03:28;7.53;;;4.35;;
70228;SDS011;57617;51.988;5.854;2023-03-23T04:05:53;8.68;;;4.68;;
70228;SDS011;57617;51.988;5.854;2023-03-23T04:08:20;10.35;;;4.78;;
70228;SDS011;57617;51.988;5.854;2023-03-23T04:10:47;9.15;;;5.00;;
70228;SDS011;57617;51.988;5.854;2023-03-23T04:13:13;8.45;;;4.78;;
70228;SDS011;57617;51.988;5.854;2023-03-23T04:15:38;6.13;;;3.95;;
70228;SDS011;57617;51.988;5.854;2023-03-23T04:18:04;9.88;;;4.72;;
70228;SDS011;57617;51.988;5.854;2023-03-23T04:20:30;7.30;;;4.40;;
70228;SDS011;57617;51.988;5.854;2023-03-23T04:22:55;7.18;;;4.20;;
70228;SDS011;57617;51.988;5.854;2023-03-23T04:25:21;9.85;;;4.55;;
70228;SDS011;57617;51.988;5.854;2023-03-23T04:27:47;10.02;;;4.60;;
70228;SDS011;57617;51.988;5.854;2023-03-23T04:30:22;7.68;;;4.38;;
70228;SDS011;57617;51.988;5.854;2023-03-23T04:32:49;6.75;;;4.07;;
70228;SDS011;57617;51.988;5.854;2023-03-23T04:35:17;8.00;;;4.55;;
70228;SDS011;57617;51.988;5.854;2023-03-23T04:37:44;11.10;;;4.28;;
70228;SDS011;57617;51.988;5.854;2023-03-23T04:40:10;8.52;;;4.55;;
70228;SDS011;57617;51.988;5.854;2023-03-23T04:42:37;6.78;;;4.13;;
70228;SDS011;57617;51.988;5.854;2023-03-23T04:45:03;5.57;;;3.45;;
70228;SDS011;57617;51.988;5.854;2023-03-23T04:47:31;7.57;;;3.97;;
70228;SDS011;57617;51.988;5.854;2023-03-23T04:49:59;7.63;;;4.18;;
70228;SDS011;57617;51.988;5.854;2023-03-23T04:52:24;6.72;;;3.53;;
70228;SDS011;57617;51.988;5.854;2023-03-23T04:54:50;6.55;;;3.67;;
70228;SDS011;57617;51.988;5.854;2023-03-23T04:57:17;9.82;;;3.35;;
70228;SDS011;57617;51.988;5.854;2023-03-23T04:59:42;8.50;;;3.47;;
70228;SDS011;57617;51.988;5.854;2023-03-23T05:02:08;5.97;;;3.13;;
70228;SDS011;57617;51.988;5.854;2023-03-23T05:04:34;10.57;;;3.70;;
70228;SDS011;57617;51.988;5.854;2023-03-23T05:06:59;7.07;;;2.95;;
70228;SDS011;57617;51.988;5.854;2023-03-23T05:09:25;8.82;;;3.00;;
70228;SDS011;57617;51.988;5.854;2023-03-23T05:11:50;10.40;;;3.20;;
70228;SDS011;57617;51.988;5.854;2023-03-23T05:14:16;7.78;;;2.80;;
70228;SDS011;57617;51.988;5.854;2023-03-23T05:16:41;12.68;;;2.60;;
70228;SDS011;57617;51.988;5.854;2023-03-23T05:19:06;4.57;;;2.95;;
70228;SDS011;57617;51.988;5.854;2023-03-23T05:21:33;10.73;;;2.70;;
70228;SDS011;57617;51.988;5.854;2023-03-23T05:23:59;7.57;;;2.55;;
70228;SDS011;57617;51.988;5.854;2023-03-23T05:26:25;6.75;;;2.42;;
70228;SDS011;57617;51.988;5.854;2023-03-23T05:28:53;7.93;;;2.50;;
70228;SDS011;57617;51.988;5.854;2023-03-23T05:31:20;9.25;;;2.45;;
70228;SDS011;57617;51.988;5.854;2023-03-23T05:33:46;8.00;;;2.70;;
70228;SDS011;57617;51.988;5.854;2023-03-23T05:36:11;11.05;;;2.83;;
70228;SDS011;57617;51.988;5.854;2023-03-23T05:38:38;10.27;;;2.58;;
70228;SDS011;57617;51.988;5.854;2023-03-23T05:41:07;6.03;;;2.05;;
70228;SDS011;57617;51.988;5.854;2023-03-23T05:43:32;8.75;;;2.20;;
70228;SDS011;57617;51.988;5.854;2023-03-23T05:45:58;11.45;;;2.90;;
70228;SDS011;57617;51.988;5.854;2023-03-23T05:48:23;9.35;;;2.67;;
70228;SDS011;57617;51.988;5.854;2023-03-23T05:50:49;7.03;;;2.10;;
70228;SDS011;57617;51.988;5.854;2023-03-23T05:53:14;7.60;;;2.50;;
70228;SDS011;57617;51.988;5.854;2023-03-23T05:55:40;7.60;;;2.30;;
70228;SDS011;57617;51.988;5.854;2023-03-23T05:58:06;9.10;;;2.10;;
70228;SDS011;57617;51.988;5.854;2023-03-23T06:00:31;8.68;;;2.35;;
70228;SDS011;57617;51.988;5.854;2023-03-23T06:02:57;10.13;;;2.50;;
70228;SDS011;57617;51.988;5.854;2023-03-23T06:05:23;10.65;;;2.20;;
70228;SDS011;57617;51.988;5.854;2023-03-23T06:07:50;5.65;;;2.00;;
70228;SDS011;57617;51.988;5.854;2023-03-23T06:10:17;7.95;;;2.00;;
70228;SDS011;57617;51.988;5.854;2023-03-23T06:12:42;6.32;;;2.20;;
70228;SDS011;57617;51.988;5.854;2023-03-23T06:15:07;7.47;;;1.98;;
70228;SDS011;57617;51.988;5.854;2023-03-23T06:17:34;7.05;;;1.77;;
70228;SDS011;57617;51.988;5.854;2023-03-23T06:20:01;10.02;;;1.65;;
70228;SDS011;57617;51.988;5.854;2023-03-23T06:22:29;6.13;;;1.95;;
70228;SDS011;57617;51.988;5.854;2023-03-23T06:24:54;5.65;;;2.17;;
70228;SDS011;57617;51.988;5.854;2023-03-23T06:27:22;5.72;;;1.70;;
70228;SDS011;57617;51.988;5.854;2023-03-23T06:29:47;4.22;;;1.67;;
70228;SDS011;57617;51.988;5.854;2023-03-23T06:32:13;9.48;;;1.65;;
70228;SDS011;57617;51.988;5.854;2023-03-23T06:34:40;12.52;;;2.47;;
70228;SDS011;57617;51.988;5.854;2023-03-23T06:37:08;9.20;;;1.52;;
70228;SDS011;57617;51.988;5.854;2023-03-23T06:39:34;5.00;;;1.55;;
70228;SDS011;57617;51.988;5.854;2023-03-23T06:41:59;6.90;;;1.95;;
70228;SDS011;57617;51.988;5.854;2023-03-23T06:44:25;6.53;;;1.98;;
70228;SDS011;57617;51.988;5.854;2023-03-23T06:46:50;8.68;;;2.05;;
70228;SDS011;57617;51.988;5.854;2023-03-23T06:49:16;4.43;;;1.70;;
70228;SDS011;57617;51.988;5.854;2023-03-23T06:51:41;9.65;;;2.00;;
70228;SDS011;57617;51.988;5.854;2023-03-23T06:54:06;6.28;;;1.70;;
70228;SDS011;57617;51.988;5.854;2023-03-23T06:56:32;7.63;;;2.10;;
70228;SDS011;57617;51.988;5.854;2023-03-23T06:58:57;7.75;;;1.80;;
70228;SDS011;57617;51.988;5.854;2023-03-23T07:01:22;7.15;;;1.95;;
70228;SDS011;57617;51.988;5.854;2023-03-23T07:03:48;7.55;;;2.25;;
70228;SDS011;57617;51.988;5.854;2023-03-23T07:06:14;8.55;;;1.80;;
70228;SDS011;57617;51.988;5.854;2023-03-23T07:08:40;6.47;;;1.95;;
70228;SDS011;57617;51.988;5.854;2023-03-23T07:11:05;7.30;;;1.88;;
70228;SDS011;57617;51.988;5.854;2023-03-23T07:13:31;11.05;;;2.08;;
70228;SDS011;57617;51.988;5.854;2023-03-23T07:15:56;8.40;;;2.03;;
70228;SDS011;57617;51.988;5.854;2023-03-23T07:18:22;8.93;;;2.30;;
70228;SDS011;57617;51.988;5.854;2023-03-23T07:20:48;8.60;;;2.40;;
70228;SDS011;57617;51.988;5.854;2023-03-23T07:23:15;9.80;;;2.30;;
70228;SDS011;57617;51.988;5.854;2023-03-23T07:25:41;11.13;;;2.67;;
70228;SDS011;57617;51.988;5.854;2023-03-23T07:28:07;17.42;;;8.88;;
70228;SDS011;57617;51.988;5.854;2023-03-23T07:30:33;7.50;;;2.00;;
70228;SDS011;57617;51.988;5.854;2023-03-23T07:32:59;14.02;;;2.80;;
70228;SDS011;57617;51.988;5.854;2023-03-23T07:35:24;15.48;;;3.70;;
70228;SDS011;57617;51.988;5.854;2023-03-23T07:37:50;11.77;;;2.38;;
70228;SDS011;57617;51.988;5.854;2023-03-23T07:40:17;9.98;;;2.38;;
70228;SDS011;57617;51.988;5.854;2023-03-23T07:42:43;7.95;;;2.17;;
70228;SDS011;57617;51.988;5.854;2023-03-23T07:45:11;7.88;;;1.80;;
70228;SDS011;57617;51.988;5.854;2023-03-23T07:47:38;5.22;;;1.60;;
70228;SDS011;57617;51.988;5.854;2023-03-23T07:50:04;6.40;;;2.03;;
70228;SDS011;57617;51.988;5.854;2023-03-23T07:52:31;5.38;;;1.77;;
70228;SDS011;57617;51.988;5.854;2023-03-23T07:54:56;4.82;;;2.10;;
70228;SDS011;57617;51.988;5.854;2023-03-23T07:57:22;4.65;;;1.67;;
70228;SDS011;57617;51.988;5.854;2023-03-23T07:59:47;5.07;;;1.50;;
70228;SDS011;57617;51.988;5.854;2023-03-23T08:02:12;9.63;;;2.28;;
70228;SDS011;57617;51.988;5.854;2023-03-23T08:04:38;7.32;;;1.80;;
70228;SDS011;57617;51.988;5.854;2023-03-23T08:07:03;10.00;;;2.45;;
70228;SDS011;57617;51.988;5.854;2023-03-23T08:09:30;8.80;;;2.20;;
70228;SDS011;57617;51.988;5.854;2023-03-23T08:11:55;7.85;;;2.17;;
70228;SDS011;57617;51.988;5.854;2023-03-23T08:14:21;9.30;;;2.42;;
70228;SDS011;57617;51.988;5.854;2023-03-23T08:16:46;8.52;;;2.40;;
70228;SDS011;57617;51.988;5.854;2023-03-23T08:19:11;10.95;;;2.58;;
70228;SDS011;57617;51.988;5.854;2023-03-23T08:21:37;8.80;;;2.45;;
70228;SDS011;57617;51.988;5.854;2023-03-23T08:24:02;9.48;;;2.78;;
70228;SDS011;57617;51.988;5.854;2023-03-23T08:26:28;9.32;;;2.80;;
70228;SDS011;57617;51.988;5.854;2023-03-23T08:28:53;5.50;;;2.47;;
70228;SDS011;57617;51.988;5.854;2023-03-23T08:31:18;9.43;;;2.70;;
70228;SDS011;57617;51.988;5.854;2023-03-23T08:33:44;10.82;;;2.60;;
70228;SDS011;57617;51.988;5.854;2023-03-23T08:36:09;9.13;;;2.97;;
70228;SDS011;57617;51.988;5.854;2023-03-23T08:38:34;11.40;;;3.10;;
70228;SDS011;57617;51.988;5.854;2023-03-23T08:41:01;10.60;;;2.67;;
70228;SDS011;57617;51.988;5.854;2023-03-23T08:43:29;9.60;;;2.70;;
70228;SDS011;57617;51.988;5.854;2023-03-23T08:45:57;10.50;;;3.08;;
70228;SDS011;57617;51.988;5.854;2023-03-23T08:48:22;7.07;;;2.97;;
70228;SDS011;57617;51.988;5.854;2023-03-23T08:50:48;7.95;;;2.13;;
70228;SDS011;57617;51.988;5.854;2023-03-23T08:53:14;9.55;;;2.30;;
70228;SDS011;57617;51.988;5.854;2023-03-23T08:55:39;4.28;;;1.88;;
70228;SDS011;57617;51.988;5.854;2023-03-23T08:58:05;7.95;;;2.20;;
70228;SDS011;57617;51.988;5.854;2023-03-23T09:00:31;5.90;;;2.00;;
70228;SDS011;57617;51.988;5.854;2023-03-23T09:02:57;7.78;;;2.22;;
70228;SDS011;57617;51.988;5.854;2023-03-23T09:05:24;5.57;;;2.03;;
70228;SDS011;57617;51.988;5.854;2023-03-23T09:07:52;7.43;;;2.20;;
70228;SDS011;57617;51.988;5.854;2023-03-23T09:10:19;6.65;;;1.90;;
70228;SDS011;57617;51.988;5.854;2023-03-23T09:12:45;5.68;;;1.63;;
70228;SDS011;57617;51.988;5.854;2023-03-23T09:15:13;7.50;;;1.70;;
70228;SDS011;57617;51.988;5.854;2023-03-23T09:17:41;3.55;;;1.60;;
70228;SDS011;57617;51.988;5.854;2023-03-23T09:20:09;5.03;;;1.65;;
70228;SDS011;57617;51.988;5.854;2023-03-23T09:22:37;6.85;;;1.58;;
70228;SDS011;57617;51.988;5.854;2023-03-23T09:25:04;6.15;;;1.58;;
70228;SDS011;57617;51.988;5.854;2023-03-23T09:27:31;6.72;;;1.45;;
70228;SDS011;57617;51.988;5.854;2023-03-23T09:29:56;8.85;;;1.55;;
70228;SDS011;57617;51.988;5.854;2023-03-23T09:32:22;5.97;;;1.33;;
70228;SDS011;57617;51.988;5.854;2023-03-23T09:34:47;6.63;;;1.20;;
70228;SDS011;57617;51.988;5.854;2023-03-23T09:37:13;6.40;;;1.65;;
70228;SDS011;57617;51.988;5.854;2023-03-23T09:39:39;4.18;;;1.33;;
70228;SDS011;57617;51.988;5.854;2023-03-23T09:42:11;6.43;;;1.23;;
70228;SDS011;57617;51.988;5.854;2023-03-23T09:50:00;8.60;;;1.63;;
70228;SDS011;57617;51.988;5.854;2023-03-23T09:52:56;5.57;;;1.50;;
70228;SDS011;57617;51.988;5.854;2023-03-23T09:55:21;8.02;;;1.52;;
70228;SDS011;57617;51.988;5.854;2023-03-23T09:57:58;4.10;;;1.40;;
70228;SDS011;57617;51.988;5.854;2023-03-23T10:05:41;8.95;;;1.88;;
70228;SDS011;57617;51.988;5.854;2023-03-23T10:15:59;7.82;;;1.77;;
70228;SDS011;57617;51.988;5.854;2023-03-23T10:18:37;7.18;;;2.00;;
70228;SDS011;57617;51.988;5.854;2023-03-23T10:21:07;6.18;;;2.00;;
70228;SDS011;57617;51.988;5.854;2023-03-23T10:29:17;9.18;;;1.83;;
70228;SDS011;57617;51.988;5.854;2023-03-23T10:31:56;7.30;;;2.00;;
70228;SDS011;57617;51.988;5.854;2023-03-23T10:39:49;7.20;;;1.98;;
70228;SDS011;57617;51.988;5.854;2023-03-23T10:44:55;8.93;;;2.13;;
70228;SDS011;57617;51.988;5.854;2023-03-23T10:47:21;10.85;;;2.00;;
70228;SDS011;57617;51.988;5.854;2023-03-23T10:49:51;13.70;;;2.03;;
70228;SDS011;57617;51.988;5.854;2023-03-23T10:52:25;12.60;;;2.25;;
70228;SDS011;57617;51.988;5.854;2023-03-23T10:57:40;10.77;;;2.20;;
70228;SDS011;57617;51.988;5.854;2023-03-23T11:00:24;8.38;;;2.13;;
70228;SDS011;57617;51.988;5.854;2023-03-23T11:02:58;8.07;;;2.25;;
70228;SDS011;57617;51.988;5.854;2023-03-23T11:05:24;6.18;;;2.00;;
70228;SDS011;57617;51.988;5.854;2023-03-23T11:07:54;7.63;;;1.90;;
70228;SDS011;57617;51.988;5.854;2023-03-23T11:12:49;8.07;;;2.15;;
70228;SDS011;57617;51.988;5.854;2023-03-23T11:15:23;9.43;;;2.42;;
70228;SDS011;57617;51.988;5.854;2023-03-23T11:18:11;8.63;;;2.65;;
70228;SDS011;57617;51.988;5.854;2023-03-23T11:20:42;8.30;;;2.50;;
70228;SDS011;57617;51.988;5.854;2023-03-23T11:23:20;10.18;;;4.20;;
70228;SDS011;57617;51.988;5.854;2023-03-23T11:28:36;11.82;;;2.58;;
70228;SDS011;57617;51.988;5.854;2023-03-23T11:31:07;8.77;;;2.63;;
70228;SDS011;57617;51.988;5.854;2023-03-23T11:33:46;8.98;;;2.45;;
70228;SDS011;57617;51.988;5.854;2023-03-23T11:36:17;7.40;;;2.08;;
70228;SDS011;57617;51.988;5.854;2023-03-23T11:38:43;9.23;;;2.30;;
70228;SDS011;57617;51.988;5.854;2023-03-23T11:41:10;9.10;;;2.22;;
70228;SDS011;57617;51.988;5.854;2023-03-23T11:43:41;10.75;;;2.50;;
70228;SDS011;57617;51.988;5.854;2023-03-23T11:46:19;7.10;;;2.45;;
70228;SDS011;57617;51.988;5.854;2023-03-23T11:49:02;9.27;;;2.22;;
70228;SDS011;57617;51.988;5.854;2023-03-23T11:51:36;9.93;;;2.10;;
70228;SDS011;57617;51.988;5.854;2023-03-23T11:57:05;10.80;;;2.13;;
70228;SDS011;57617;51.988;5.854;2023-03-23T11:59:35;9.13;;;2.25;;
70228;SDS011;57617;51.988;5.854;2023-03-23T12:05:26;7.22;;;1.73;;
70228;SDS011;57617;51.988;5.854;2023-03-23T12:24:34;7.78;;;2.05;;
70228;SDS011;57617;51.988;5.854;2023-03-23T12:27:13;6.72;;;2.60;;
70228;SDS011;57617;51.988;5.854;2023-03-23T12:33:03;10.73;;;2.83;;
70228;SDS011;57617;51.988;5.854;2023-03-23T12:35:53;10.60;;;3.45;;
70228;SDS011;57617;51.988;5.854;2023-03-23T12:43:52;10.25;;;3.45;;
70228;SDS011;57617;51.988;5.854;2023-03-23T12:49:02;9.60;;;3.28;;
70228;SDS011;57617;51.988;5.854;2023-03-23T12:51:33;7.53;;;3.30;;
70228;SDS011;57617;51.988;5.854;2023-03-23T12:54:21;6.30;;;2.30;;
70228;SDS011;57617;51.988;5.854;2023-03-23T12:59:41;12.13;;;3.25;;
70228;SDS011;57617;51.988;5.854;2023-03-23T13:02:28;10.35;;;2.97;;
70228;SDS011;57617;51.988;5.854;2023-03-23T13:05:05;8.82;;;2.85;;
70228;SDS011;57617;51.988;5.854;2023-03-23T13:07:41;7.30;;;2.67;;
70228;SDS011;57617;51.988;5.854;2023-03-23T13:10:19;11.55;;;3.42;;
70228;SDS011;57617;51.988;5.854;2023-03-23T13:12:47;6.28;;;2.30;;
70228;SDS011;57617;51.988;5.854;2023-03-23T13:23:39;10.85;;;1.98;;
70228;SDS011;57617;51.988;5.854;2023-03-23T13:26:12;6.47;;;1.90;;
70228;SDS011;57617;51.988;5.854;2023-03-23T13:31:28;5.95;;;1.98;;
70228;SDS011;57617;51.988;5.854;2023-03-23T13:34:01;6.60;;;1.75;;
70228;SDS011;57617;51.988;5.854;2023-03-23T13:36:30;7.57;;;1.73;;
70228;SDS011;57617;51.988;5.854;2023-03-23T13:38:57;8.18;;;2.55;;
70228;SDS011;57617;51.988;5.854;2023-03-23T13:41:24;9.52;;;2.22;;
70228;SDS011;57617;51.988;5.854;2023-03-23T13:43:51;7.68;;;2.25;;
70228;SDS011;57617;51.988;5.854;2023-03-23T13:48:46;9.30;;;2.40;;
70228;SDS011;57617;51.988;5.854;2023-03-23T13:56:42;5.68;;;2.15;;
70228;SDS011;57617;51.988;5.854;2023-03-23T13:59:14;6.88;;;2.70;;
70228;SDS011;57617;51.988;5.854;2023-03-23T14:01:41;7.40;;;2.40;;
70228;SDS011;57617;51.988;5.854;2023-03-23T14:04:14;7.45;;;2.70;;
70228;SDS011;57617;51.988;5.854;2023-03-23T14:06:42;7.63;;;2.75;;
70228;SDS011;57617;51.988;5.854;2023-03-23T14:09:15;9.38;;;2.60;;
70228;SDS011;57617;51.988;5.854;2023-03-23T14:11:54;5.68;;;2.88;;
70228;SDS011;57617;51.988;5.854;2023-03-23T14:14:26;6.53;;;2.72;;
70228;SDS011;57617;51.988;5.854;2023-03-23T14:17:04;8.23;;;2.63;;
70228;SDS011;57617;51.988;5.854;2023-03-23T14:19:31;6.68;;;2.88;;
70228;SDS011;57617;51.988;5.854;2023-03-23T14:21:58;10.18;;;3.10;;
70228;SDS011;57617;51.988;5.854;2023-03-23T14:24:32;8.52;;;2.90;;
70228;SDS011;57617;51.988;5.854;2023-03-23T14:29:40;9.85;;;3.40;;
70228;SDS011;57617;51.988;5.854;2023-03-23T14:32:06;8.70;;;3.63;;
70228;SDS011;57617;51.988;5.854;2023-03-23T14:34:36;10.55;;;3.30;;
70228;SDS011;57617;51.988;5.854;2023-03-23T14:37:02;7.28;;;2.90;;
70228;SDS011;57617;51.988;5.854;2023-03-23T14:39:31;8.20;;;3.58;;
70228;SDS011;57617;51.988;5.854;2023-03-23T14:42:03;7.88;;;3.00;;
70228;SDS011;57617;51.988;5.854;2023-03-23T14:44:40;10.93;;;3.10;;
70228;SDS011;57617;51.988;5.854;2023-03-23T14:47:55;8.25;;;2.88;;
70228;SDS011;57617;51.988;5.854;2023-03-23T14:49:58;10.15;;;2.53;;
70228;SDS011;57617;51.988;5.854;2023-03-23T14:52:28;8.25;;;2.17;;
70228;SDS011;57617;51.988;5.854;2023-03-23T14:55:20;8.07;;;2.10;;
70228;SDS011;57617;51.988;5.854;2023-03-23T14:57:49;9.48;;;2.00;;
70228;SDS011;57617;51.988;5.854;2023-03-23T15:03:10;6.93;;;1.80;;
70228;SDS011;57617;51.988;5.854;2023-03-23T15:05:40;8.23;;;1.80;;
70228;SDS011;57617;51.988;5.854;2023-03-23T15:08:14;6.63;;;1.80;;
70228;SDS011;57617;51.988;5.854;2023-03-23T15:10:50;9.45;;;1.98;;
70228;SDS011;57617;51.988;5.854;2023-03-23T15:13:17;7.97;;;1.73;;
70228;SDS011;57617;51.988;5.854;2023-03-23T15:15:43;8.30;;;1.77;;
70228;SDS011;57617;51.988;5.854;2023-03-23T15:20:57;6.47;;;1.50;;
70228;SDS011;57617;51.988;5.854;2023-03-23T15:23:26;5.95;;;1.40;;
70228;SDS011;57617;51.988;5.854;2023-03-23T15:25:55;7.85;;;1.95;;
70228;SDS011;57617;51.988;5.854;2023-03-23T15:28:22;8.68;;;1.83;;
70228;SDS011;57617;51.988;5.854;2023-03-23T15:30:55;9.65;;;1.50;;
70228;SDS011;57617;51.988;5.854;2023-03-23T15:33:26;7.30;;;1.73;;
70228;SDS011;57617;51.988;5.854;2023-03-23T15:35:53;7.82;;;1.67;;
70228;SDS011;57617;51.988;5.854;2023-03-23T15:38:28;7.43;;;1.77;;
70228;SDS011;57617;51.988;5.854;2023-03-23T15:40:56;6.55;;;1.48;;
70228;SDS011;57617;51.988;5.854;2023-03-23T15:46:00;9.27;;;2.15;;
70228;SDS011;57617;51.988;5.854;2023-03-23T15:48:51;9.00;;;1.77;;
70228;SDS011;57617;51.988;5.854;2023-03-23T15:51:38;9.07;;;1.90;;
70228;SDS011;57617;51.988;5.854;2023-03-23T15:54:05;11.43;;;2.08;;
70228;SDS011;57617;51.988;5.854;2023-03-23T15:56:36;8.40;;;2.00;;
70228;SDS011;57617;51.988;5.854;2023-03-23T15:59:02;8.98;;;2.00;;
70228;SDS011;57617;51.988;5.854;2023-03-23T16:01:28;7.80;;;1.80;;
70228;SDS011;57617;51.988;5.854;2023-03-23T16:03:55;8.65;;;2.10;;
70228;SDS011;57617;51.988;5.854;2023-03-23T16:06:25;11.80;;;2.38;;
70228;SDS011;57617;51.988;5.854;2023-03-23T16:08:54;10.13;;;2.35;;
70228;SDS011;57617;51.988;5.854;2023-03-23T16:11:21;9.32;;;1.92;;
70228;SDS011;57617;51.988;5.854;2023-03-23T16:13:47;10.43;;;2.08;;
70228;SDS011;57617;51.988;5.854;2023-03-23T16:18:48;9.23;;;2.45;;
70228;SDS011;57617;51.988;5.854;2023-03-23T16:21:13;11.02;;;2.72;;
70228;SDS011;57617;51.988;5.854;2023-03-23T16:23:39;12.07;;;2.95;;
70228;SDS011;57617;51.988;5.854;2023-03-23T16:26:08;8.55;;;2.75;;
70228;SDS011;57617;51.988;5.854;2023-03-23T16:28:33;14.55;;;2.80;;
70228;SDS011;57617;51.988;5.854;2023-03-23T16:30:59;7.28;;;1.98;;
70228;SDS011;57617;51.988;5.854;2023-03-23T16:33:24;7.78;;;1.98;;
70228;SDS011;57617;51.988;5.854;2023-03-23T16:35:49;6.05;;;1.50;;
70228;SDS011;57617;51.988;5.854;2023-03-23T16:38:15;9.43;;;1.85;;
70228;SDS011;57617;51.988;5.854;2023-03-23T16:40:42;5.25;;;1.92;;
70228;SDS011;57617;51.988;5.854;2023-03-23T16:43:08;9.48;;;2.10;;
70228;SDS011;57617;51.988;5.854;2023-03-23T16:45:35;7.38;;;2.03;;
70228;SDS011;57617;51.988;5.854;2023-03-23T16:48:01;5.65;;;1.60;;
70228;SDS011;57617;51.988;5.854;2023-03-23T16:50:27;7.88;;;2.00;;
70228;SDS011;57617;51.988;5.854;2023-03-23T16:52:54;5.60;;;1.48;;
70228;SDS011;57617;51.988;5.854;2023-03-23T16:55:20;9.23;;;2.10;;
70228;SDS011;57617;51.988;5.854;2023-03-23T16:57:45;6.85;;;2.05;;